sensor_id;sensor_type;location;lat;lon;timestamp;temperature;humidity
2389;DHT22;1205;47.984;7.668;2023-05-24T00:01:50;15.50;99.20
2389;DHT22;1205;47.984;7.668;2023-05-24T00:04:16;15.50;99.30
2389;DHT22;1205;47.984;7.668;2023-05-24T00:06:43;15.50;99.20
2389;DHT22;1205;47.984;7.668;2023-05-24T00:09:09;15.50;99.30
2389;DHT22;1205;47.984;7.668;2023-05-24T00:11:35;15.50;99.20
2389;DHT22;1205;47.984;7.668;2023-05-24T00:14:01;15.40;99.20
2389;DHT22;1205;47.984;7.668;2023-05-24T00:16:26;15.50;99.10
2389;DHT22;1205;47.984;7.668;2023-05-24T00:18:52;15.40;99.10
2389;DHT22;1205;47.984;7.668;2023-05-24T00:21:19;15.40;99.10
2389;DHT22;1205;47.984;7.668;2023-05-24T00:23:44;15.40;99.20
2389;DHT22;1205;47.984;7.668;2023-05-24T00:26:10;15.40;99.00
2389;DHT22;1205;47.984;7.668;2023-05-24T00:28:35;15.40;99.10
2389;DHT22;1205;47.984;7.668;2023-05-24T00:31:01;15.40;99.10
2389;DHT22;1205;47.984;7.668;2023-05-24T00:33:27;15.30;99.10
2389;DHT22;1205;47.984;7.668;2023-05-24T00:35:54;15.30;99.20
2389;DHT22;1205;47.984;7.668;2023-05-24T00:38:25;15.30;99.20
2389;DHT22;1205;47.984;7.668;2023-05-24T00:40:52;15.30;99.20
2389;DHT22;1205;47.984;7.668;2023-05-24T00:43:17;15.20;99.20
2389;DHT22;1205;47.984;7.668;2023-05-24T00:45:43;15.30;99.30
2389;DHT22;1205;47.984;7.668;2023-05-24T00:48:09;15.30;99.20
2389;DHT22;1205;47.984;7.668;2023-05-24T00:50:37;15.30;99.30
2389;DHT22;1205;47.984;7.668;2023-05-24T00:53:03;15.20;99.30
2389;DHT22;1205;47.984;7.668;2023-05-24T00:55:30;15.30;99.20
2389;DHT22;1205;47.984;7.668;2023-05-24T00:57:58;15.20;99.40
2389;DHT22;1205;47.984;7.668;2023-05-24T01:00:25;15.20;99.40
2389;DHT22;1205;47.984;7.668;2023-05-24T01:02:51;15.30;99.40
2389;DHT22;1205;47.984;7.668;2023-05-24T01:05:17;15.30;99.30
2389;DHT22;1205;47.984;7.668;2023-05-24T01:11:00;15.30;99.50
2389;DHT22;1205;47.984;7.668;2023-05-24T01:22:12;15.40;99.60
2389;DHT22;1205;47.984;7.668;2023-05-24T01:27:31;15.50;99.60
2389;DHT22;1205;47.984;7.668;2023-05-24T01:29:58;15.60;99.30
2389;DHT22;1205;47.984;7.668;2023-05-24T01:32:24;15.50;99.30
2389;DHT22;1205;47.984;7.668;2023-05-24T01:34:50;15.60;99.60
2389;DHT22;1205;47.984;7.668;2023-05-24T01:37:16;15.60;99.80
2389;DHT22;1205;47.984;7.668;2023-05-24T01:39:42;15.60;99.90
2389;DHT22;1205;47.984;7.668;2023-05-24T01:42:26;15.60;99.90
2389;DHT22;1205;47.984;7.668;2023-05-24T01:45:19;15.60;99.90
2389;DHT22;1205;47.984;7.668;2023-05-24T01:50:50;15.60;99.70
2389;DHT22;1205;47.984;7.668;2023-05-24T01:53:18;15.60;99.60
2389;DHT22;1205;47.984;7.668;2023-05-24T01:55:47;15.60;99.10
2389;DHT22;1205;47.984;7.668;2023-05-24T01:58:15;15.60;99.10
2389;DHT22;1205;47.984;7.668;2023-05-24T02:00:42;15.50;98.90
2389;DHT22;1205;47.984;7.668;2023-05-24T02:03:08;15.50;98.90
2389;DHT22;1205;47.984;7.668;2023-05-24T02:05:34;15.50;99.00
2389;DHT22;1205;47.984;7.668;2023-05-24T02:08:00;15.50;99.10
2389;DHT22;1205;47.984;7.668;2023-05-24T02:10:25;15.50;99.20
2389;DHT22;1205;47.984;7.668;2023-05-24T02:12:51;15.40;99.80
2389;DHT22;1205;47.984;7.668;2023-05-24T02:15:16;15.40;99.30
2389;DHT22;1205;47.984;7.668;2023-05-24T02:17:42;15.40;99.30
2389;DHT22;1205;47.984;7.668;2023-05-24T02:20:08;15.30;99.40
2389;DHT22;1205;47.984;7.668;2023-05-24T02:22:34;15.30;99.40
2389;DHT22;1205;47.984;7.668;2023-05-24T02:24:59;15.30;99.40
2389;DHT22;1205;47.984;7.668;2023-05-24T02:27:25;15.30;99.50
2389;DHT22;1205;47.984;7.668;2023-05-24T02:29:51;15.20;99.80
2389;DHT22;1205;47.984;7.668;2023-05-24T02:32:17;15.20;99.50
2389;DHT22;1205;47.984;7.668;2023-05-24T02:34:42;15.20;99.60
2389;DHT22;1205;47.984;7.668;2023-05-24T02:37:08;15.20;99.50
2389;DHT22;1205;47.984;7.668;2023-05-24T02:39:38;15.10;99.40
2389;DHT22;1205;47.984;7.668;2023-05-24T02:42:05;15.10;99.50
2389;DHT22;1205;47.984;7.668;2023-05-24T02:44:30;15.00;99.60
2389;DHT22;1205;47.984;7.668;2023-05-24T02:46:56;15.00;99.60
2389;DHT22;1205;47.984;7.668;2023-05-24T02:49:21;15.00;99.60
2389;DHT22;1205;47.984;7.668;2023-05-24T02:51:47;15.00;99.80
2389;DHT22;1205;47.984;7.668;2023-05-24T02:54:12;14.90;99.80
2389;DHT22;1205;47.984;7.668;2023-05-24T02:56:38;14.90;99.90
2389;DHT22;1205;47.984;7.668;2023-05-24T02:59:04;14.90;99.90
2389;DHT22;1205;47.984;7.668;2023-05-24T03:01:30;15.00;99.90
2389;DHT22;1205;47.984;7.668;2023-05-24T03:03:58;14.90;99.90
2389;DHT22;1205;47.984;7.668;2023-05-24T03:06:23;14.90;99.90
2389;DHT22;1205;47.984;7.668;2023-05-24T03:08:49;14.90;99.90
2389;DHT22;1205;47.984;7.668;2023-05-24T03:11:15;14.90;99.90
2389;DHT22;1205;47.984;7.668;2023-05-24T03:13:41;14.90;99.90
2389;DHT22;1205;47.984;7.668;2023-05-24T03:16:06;14.80;99.90
2389;DHT22;1205;47.984;7.668;2023-05-24T03:18:32;14.80;99.90
2389;DHT22;1205;47.984;7.668;2023-05-24T03:20:57;14.70;99.90
2389;DHT22;1205;47.984;7.668;2023-05-24T03:23:23;14.70;99.90
2389;DHT22;1205;47.984;7.668;2023-05-24T03:25:49;14.80;99.90
2389;DHT22;1205;47.984;7.668;2023-05-24T03:28:14;14.80;99.90
2389;DHT22;1205;47.984;7.668;2023-05-24T03:30:40;14.80;99.90
2389;DHT22;1205;47.984;7.668;2023-05-24T03:33:05;14.80;99.90
2389;DHT22;1205;47.984;7.668;2023-05-24T03:35:31;14.80;99.90
2389;DHT22;1205;47.984;7.668;2023-05-24T03:37:56;14.90;99.90
2389;DHT22;1205;47.984;7.668;2023-05-24T03:40:22;14.80;99.90
2389;DHT22;1205;47.984;7.668;2023-05-24T03:42:49;14.90;99.90
2389;DHT22;1205;47.984;7.668;2023-05-24T03:45:15;14.90;99.90
2389;DHT22;1205;47.984;7.668;2023-05-24T03:47:41;14.90;99.90
2389;DHT22;1205;47.984;7.668;2023-05-24T03:50:07;15.00;99.90
2389;DHT22;1205;47.984;7.668;2023-05-24T03:52:32;14.90;99.90
2389;DHT22;1205;47.984;7.668;2023-05-24T03:54:58;14.90;99.90
2389;DHT22;1205;47.984;7.668;2023-05-24T03:57:24;14.90;99.90
2389;DHT22;1205;47.984;7.668;2023-05-24T03:59:49;14.80;99.90
2389;DHT22;1205;47.984;7.668;2023-05-24T04:02:15;14.70;99.90
2389;DHT22;1205;47.984;7.668;2023-05-24T04:04:40;14.70;99.90
2389;DHT22;1205;47.984;7.668;2023-05-24T04:07:06;14.80;99.90
2389;DHT22;1205;47.984;7.668;2023-05-24T04:09:32;14.80;99.90
2389;DHT22;1205;47.984;7.668;2023-05-24T04:11:57;14.80;99.90
2389;DHT22;1205;47.984;7.668;2023-05-24T04:14:23;14.90;99.90
2389;DHT22;1205;47.984;7.668;2023-05-24T04:16:49;14.80;99.90
2389;DHT22;1205;47.984;7.668;2023-05-24T04:19:14;14.70;99.80
2389;DHT22;1205;47.984;7.668;2023-05-24T04:21:40;14.60;99.90
2389;DHT22;1205;47.984;7.668;2023-05-24T04:24:05;14.40;99.90
2389;DHT22;1205;47.984;7.668;2023-05-24T04:26:31;14.40;99.90
2389;DHT22;1205;47.984;7.668;2023-05-24T04:28:58;14.40;99.90
2389;DHT22;1205;47.984;7.668;2023-05-24T04:31:24;14.40;99.90
2389;DHT22;1205;47.984;7.668;2023-05-24T04:33:50;14.40;99.90
2389;DHT22;1205;47.984;7.668;2023-05-24T04:36:17;14.40;99.90
2389;DHT22;1205;47.984;7.668;2023-05-24T04:38:43;14.50;99.90
2389;DHT22;1205;47.984;7.668;2023-05-24T04:41:10;14.50;99.90
2389;DHT22;1205;47.984;7.668;2023-05-24T04:43:36;14.50;99.90
2389;DHT22;1205;47.984;7.668;2023-05-24T04:46:02;14.50;99.90
2389;DHT22;1205;47.984;7.668;2023-05-24T04:48:28;14.60;99.90
2389;DHT22;1205;47.984;7.668;2023-05-24T04:50:54;14.60;99.90
2389;DHT22;1205;47.984;7.668;2023-05-24T04:53:20;14.60;99.90
2389;DHT22;1205;47.984;7.668;2023-05-24T04:55:46;14.60;99.90
2389;DHT22;1205;47.984;7.668;2023-05-24T04:58:13;14.60;99.90
2389;DHT22;1205;47.984;7.668;2023-05-24T05:00:38;14.60;99.90
2389;DHT22;1205;47.984;7.668;2023-05-24T05:03:04;14.60;99.90
2389;DHT22;1205;47.984;7.668;2023-05-24T05:05:30;14.60;99.90
2389;DHT22;1205;47.984;7.668;2023-05-24T05:07:55;14.70;99.90
2389;DHT22;1205;47.984;7.668;2023-05-24T05:10:22;14.70;99.90
2389;DHT22;1205;47.984;7.668;2023-05-24T05:12:47;14.80;99.90
2389;DHT22;1205;47.984;7.668;2023-05-24T05:15:13;14.80;99.90
2389;DHT22;1205;47.984;7.668;2023-05-24T05:17:39;14.80;99.90
2389;DHT22;1205;47.984;7.668;2023-05-24T05:20:05;14.90;99.90
2389;DHT22;1205;47.984;7.668;2023-05-24T05:22:31;14.90;99.90
2389;DHT22;1205;47.984;7.668;2023-05-24T05:24:57;14.90;99.90
2389;DHT22;1205;47.984;7.668;2023-05-24T05:27:22;14.90;99.90
2389;DHT22;1205;47.984;7.668;2023-05-24T05:29:48;14.90;99.90
2389;DHT22;1205;47.984;7.668;2023-05-24T05:32:14;14.90;99.90
2389;DHT22;1205;47.984;7.668;2023-05-24T05:34:39;15.10;99.90
2389;DHT22;1205;47.984;7.668;2023-05-24T05:37:05;15.20;99.90
2389;DHT22;1205;47.984;7.668;2023-05-24T05:39:31;15.20;99.90
2389;DHT22;1205;47.984;7.668;2023-05-24T05:41:57;15.40;99.90
2389;DHT22;1205;47.984;7.668;2023-05-24T05:44:22;15.60;99.90
2389;DHT22;1205;47.984;7.668;2023-05-24T05:46:48;15.60;99.90
2389;DHT22;1205;47.984;7.668;2023-05-24T05:49:14;15.80;99.40
2389;DHT22;1205;47.984;7.668;2023-05-24T05:51:41;15.80;99.40
2389;DHT22;1205;47.984;7.668;2023-05-24T05:54:07;15.90;99.20
2389;DHT22;1205;47.984;7.668;2023-05-24T05:56:40;16.00;98.70
2389;DHT22;1205;47.984;7.668;2023-05-24T05:59:18;16.00;98.60
2389;DHT22;1205;47.984;7.668;2023-05-24T06:01:44;16.00;98.80
2389;DHT22;1205;47.984;7.668;2023-05-24T06:04:12;15.90;98.90
2389;DHT22;1205;47.984;7.668;2023-05-24T06:06:38;15.80;99.00
2389;DHT22;1205;47.984;7.668;2023-05-24T06:09:03;15.70;99.00
2389;DHT22;1205;47.984;7.668;2023-05-24T06:11:30;15.50;99.30
2389;DHT22;1205;47.984;7.668;2023-05-24T06:13:55;15.50;99.40
2389;DHT22;1205;47.984;7.668;2023-05-24T06:16:21;15.30;99.40
2389;DHT22;1205;47.984;7.668;2023-05-24T06:18:47;15.10;99.60
2389;DHT22;1205;47.984;7.668;2023-05-24T06:21:13;15.20;99.60
2389;DHT22;1205;47.984;7.668;2023-05-24T06:23:39;15.00;99.60
2389;DHT22;1205;47.984;7.668;2023-05-24T06:26:05;15.10;99.80
2389;DHT22;1205;47.984;7.668;2023-05-24T06:28:34;15.20;99.90
2389;DHT22;1205;47.984;7.668;2023-05-24T06:30:59;15.30;99.90
2389;DHT22;1205;47.984;7.668;2023-05-24T06:33:25;15.00;99.40
2389;DHT22;1205;47.984;7.668;2023-05-24T06:35:52;15.20;99.50
2389;DHT22;1205;47.984;7.668;2023-05-24T06:38:17;15.00;99.50
2389;DHT22;1205;47.984;7.668;2023-05-24T06:40:43;15.30;99.60
2389;DHT22;1205;47.984;7.668;2023-05-24T06:43:08;15.40;99.10
2389;DHT22;1205;47.984;7.668;2023-05-24T06:45:34;15.50;99.50
2389;DHT22;1205;47.984;7.668;2023-05-24T06:48:01;15.50;98.90
2389;DHT22;1205;47.984;7.668;2023-05-24T06:50:27;15.60;99.10
2389;DHT22;1205;47.984;7.668;2023-05-24T06:52:52;15.60;99.10
2389;DHT22;1205;47.984;7.668;2023-05-24T06:55:19;15.70;98.70
2389;DHT22;1205;47.984;7.668;2023-05-24T06:57:44;15.60;98.60
2389;DHT22;1205;47.984;7.668;2023-05-24T07:00:10;15.60;99.10
2389;DHT22;1205;47.984;7.668;2023-05-24T07:02:40;15.70;98.80
2389;DHT22;1205;47.984;7.668;2023-05-24T07:05:06;15.90;98.60
2389;DHT22;1205;47.984;7.668;2023-05-24T07:07:40;15.90;98.10
2389;DHT22;1205;47.984;7.668;2023-05-24T07:10:07;16.00;98.20
2389;DHT22;1205;47.984;7.668;2023-05-24T07:12:33;16.10;98.40
2389;DHT22;1205;47.984;7.668;2023-05-24T07:14:59;16.20;98.10
2389;DHT22;1205;47.984;7.668;2023-05-24T07:17:24;16.20;98.10
2389;DHT22;1205;47.984;7.668;2023-05-24T07:19:50;16.20;98.10
2389;DHT22;1205;47.984;7.668;2023-05-24T07:22:16;16.30;98.30
2389;DHT22;1205;47.984;7.668;2023-05-24T07:24:42;16.20;98.20
2389;DHT22;1205;47.984;7.668;2023-05-24T07:27:08;16.10;97.80
2389;DHT22;1205;47.984;7.668;2023-05-24T07:29:33;15.90;98.20
2389;DHT22;1205;47.984;7.668;2023-05-24T07:31:59;16.00;98.00
2389;DHT22;1205;47.984;7.668;2023-05-24T07:34:25;15.90;98.20
2389;DHT22;1205;47.984;7.668;2023-05-24T07:36:54;16.00;98.20
2389;DHT22;1205;47.984;7.668;2023-05-24T07:39:22;15.90;98.40
2389;DHT22;1205;47.984;7.668;2023-05-24T07:41:48;15.70;98.10
2389;DHT22;1205;47.984;7.668;2023-05-24T07:44:15;15.70;98.30
2389;DHT22;1205;47.984;7.668;2023-05-24T07:46:40;15.60;98.20
2389;DHT22;1205;47.984;7.668;2023-05-24T07:49:06;16.00;99.90
2389;DHT22;1205;47.984;7.668;2023-05-24T07:51:31;15.80;98.30
2389;DHT22;1205;47.984;7.668;2023-05-24T07:53:58;16.10;99.90
2389;DHT22;1205;47.984;7.668;2023-05-24T07:56:23;16.30;99.50
2389;DHT22;1205;47.984;7.668;2023-05-24T07:58:49;16.40;99.80
2389;DHT22;1205;47.984;7.668;2023-05-24T08:01:16;16.50;97.80
2389;DHT22;1205;47.984;7.668;2023-05-24T08:03:44;16.80;99.00
2389;DHT22;1205;47.984;7.668;2023-05-24T08:06:11;16.40;97.20
2389;DHT22;1205;47.984;7.668;2023-05-24T08:08:37;16.30;98.50
2389;DHT22;1205;47.984;7.668;2023-05-24T08:11:03;16.50;97.50
2389;DHT22;1205;47.984;7.668;2023-05-24T08:13:29;16.60;99.00
2389;DHT22;1205;47.984;7.668;2023-05-24T08:15:55;17.00;99.00
2389;DHT22;1205;47.984;7.668;2023-05-24T08:18:22;16.90;96.70
2389;DHT22;1205;47.984;7.668;2023-05-24T08:20:48;16.80;97.10
2389;DHT22;1205;47.984;7.668;2023-05-24T08:23:13;16.70;96.70
2389;DHT22;1205;47.984;7.668;2023-05-24T08:25:39;16.50;96.90
2389;DHT22;1205;47.984;7.668;2023-05-24T08:28:05;16.60;97.00
2389;DHT22;1205;47.984;7.668;2023-05-24T08:30:30;16.90;96.90
2389;DHT22;1205;47.984;7.668;2023-05-24T08:32:56;16.70;96.80
2389;DHT22;1205;47.984;7.668;2023-05-24T08:35:22;16.70;96.90
2389;DHT22;1205;47.984;7.668;2023-05-24T08:37:48;16.80;96.90
2389;DHT22;1205;47.984;7.668;2023-05-24T08:40:14;17.10;96.60
2389;DHT22;1205;47.984;7.668;2023-05-24T08:42:40;17.00;96.70
2389;DHT22;1205;47.984;7.668;2023-05-24T08:45:13;17.10;96.20
2389;DHT22;1205;47.984;7.668;2023-05-24T08:47:40;17.20;96.50
2389;DHT22;1205;47.984;7.668;2023-05-24T08:50:07;17.10;96.10
2389;DHT22;1205;47.984;7.668;2023-05-24T08:52:33;17.20;96.30
2389;DHT22;1205;47.984;7.668;2023-05-24T08:54:59;17.40;96.20
2389;DHT22;1205;47.984;7.668;2023-05-24T08:57:30;17.40;95.70
2389;DHT22;1205;47.984;7.668;2023-05-24T08:59:57;17.30;96.00
2389;DHT22;1205;47.984;7.668;2023-05-24T09:02:23;17.40;95.70
2389;DHT22;1205;47.984;7.668;2023-05-24T09:04:50;17.40;95.90
2389;DHT22;1205;47.984;7.668;2023-05-24T09:07:18;17.40;96.00
2389;DHT22;1205;47.984;7.668;2023-05-24T09:09:51;17.30;95.80
2389;DHT22;1205;47.984;7.668;2023-05-24T09:12:19;17.10;96.10
2389;DHT22;1205;47.984;7.668;2023-05-24T09:14:47;17.00;96.40
2389;DHT22;1205;47.984;7.668;2023-05-24T09:17:12;17.10;96.40
2389;DHT22;1205;47.984;7.668;2023-05-24T09:19:45;17.10;96.50
2389;DHT22;1205;47.984;7.668;2023-05-24T09:22:15;17.00;96.60
2389;DHT22;1205;47.984;7.668;2023-05-24T09:24:46;17.00;96.70
2389;DHT22;1205;47.984;7.668;2023-05-24T09:27:16;17.10;96.60
2389;DHT22;1205;47.984;7.668;2023-05-24T09:29:42;17.10;96.60
2389;DHT22;1205;47.984;7.668;2023-05-24T09:32:11;17.10;96.50
2389;DHT22;1205;47.984;7.668;2023-05-24T09:34:44;17.10;96.60
2389;DHT22;1205;47.984;7.668;2023-05-24T09:37:13;17.10;96.40
2389;DHT22;1205;47.984;7.668;2023-05-24T09:39:44;17.10;96.60
2389;DHT22;1205;47.984;7.668;2023-05-24T09:42:15;16.90;96.40
2389;DHT22;1205;47.984;7.668;2023-05-24T09:44:48;17.00;96.70
2389;DHT22;1205;47.984;7.668;2023-05-24T09:47:14;17.00;96.50
2389;DHT22;1205;47.984;7.668;2023-05-24T09:49:40;17.30;96.30
2389;DHT22;1205;47.984;7.668;2023-05-24T09:52:06;17.00;96.20
2389;DHT22;1205;47.984;7.668;2023-05-24T09:54:32;16.80;96.40
2389;DHT22;1205;47.984;7.668;2023-05-24T09:57:01;16.70;96.40
2389;DHT22;1205;47.984;7.668;2023-05-24T09:59:32;16.60;96.50
2389;DHT22;1205;47.984;7.668;2023-05-24T10:02:11;16.60;96.90
2389;DHT22;1205;47.984;7.668;2023-05-24T10:04:38;16.50;97.10
2389;DHT22;1205;47.984;7.668;2023-05-24T10:07:05;16.60;96.90
2389;DHT22;1205;47.984;7.668;2023-05-24T10:09:31;16.70;97.00
2389;DHT22;1205;47.984;7.668;2023-05-24T10:12:04;17.10;96.60
2389;DHT22;1205;47.984;7.668;2023-05-24T10:14:37;17.20;96.20
2389;DHT22;1205;47.984;7.668;2023-05-24T10:17:04;17.30;96.30
2389;DHT22;1205;47.984;7.668;2023-05-24T10:19:34;17.40;96.20
2389;DHT22;1205;47.984;7.668;2023-05-24T10:22:05;17.50;95.80
2389;DHT22;1205;47.984;7.668;2023-05-24T10:24:34;17.40;96.20
2389;DHT22;1205;47.984;7.668;2023-05-24T10:27:03;17.60;96.00
2389;DHT22;1205;47.984;7.668;2023-05-24T10:32:15;17.60;95.80
2389;DHT22;1205;47.984;7.668;2023-05-24T10:34:42;17.70;95.70
2389;DHT22;1205;47.984;7.668;2023-05-24T10:37:08;17.90;95.80
2389;DHT22;1205;47.984;7.668;2023-05-24T10:39:34;18.00;95.70
2389;DHT22;1205;47.984;7.668;2023-05-24T10:42:04;18.10;95.60
2389;DHT22;1205;47.984;7.668;2023-05-24T10:44:30;18.00;95.20
2389;DHT22;1205;47.984;7.668;2023-05-24T10:49:32;18.20;95.00
2389;DHT22;1205;47.984;7.668;2023-05-24T10:52:08;18.20;95.30
2389;DHT22;1205;47.984;7.668;2023-05-24T10:54:33;18.40;95.00
2389;DHT22;1205;47.984;7.668;2023-05-24T10:57:01;18.60;95.20
2389;DHT22;1205;47.984;7.668;2023-05-24T10:59:35;18.70;94.50
2389;DHT22;1205;47.984;7.668;2023-05-24T11:02:10;18.90;94.40
2389;DHT22;1205;47.984;7.668;2023-05-24T11:04:45;18.80;94.40
2389;DHT22;1205;47.984;7.668;2023-05-24T11:07:13;18.80;94.40
2389;DHT22;1205;47.984;7.668;2023-05-24T11:09:40;18.80;94.10
2389;DHT22;1205;47.984;7.668;2023-05-24T11:12:16;19.00;94.30
2389;DHT22;1205;47.984;7.668;2023-05-24T11:14:50;19.10;94.30
2389;DHT22;1205;47.984;7.668;2023-05-24T11:17:21;19.00;93.90
2389;DHT22;1205;47.984;7.668;2023-05-24T11:19:51;18.70;94.00
2389;DHT22;1205;47.984;7.668;2023-05-24T11:22:19;18.80;94.00
2389;DHT22;1205;47.984;7.668;2023-05-24T11:24:45;18.80;94.00
2389;DHT22;1205;47.984;7.668;2023-05-24T11:27:12;18.90;93.80
2389;DHT22;1205;47.984;7.668;2023-05-24T11:29:45;18.80;94.20
2389;DHT22;1205;47.984;7.668;2023-05-24T11:32:16;18.70;94.20
2389;DHT22;1205;47.984;7.668;2023-05-24T11:34:43;18.60;93.90
2389;DHT22;1205;47.984;7.668;2023-05-24T11:37:10;18.70;93.90
2389;DHT22;1205;47.984;7.668;2023-05-24T11:39:36;18.70;94.00
2389;DHT22;1205;47.984;7.668;2023-05-24T11:42:06;18.70;94.60
2389;DHT22;1205;47.984;7.668;2023-05-24T11:44:32;19.00;94.30
2389;DHT22;1205;47.984;7.668;2023-05-24T11:47:03;18.90;93.90
2389;DHT22;1205;47.984;7.668;2023-05-24T11:49:29;19.20;93.30
2389;DHT22;1205;47.984;7.668;2023-05-24T11:51:55;19.20;93.30
2389;DHT22;1205;47.984;7.668;2023-05-24T11:54:22;19.20;93.60
2389;DHT22;1205;47.984;7.668;2023-05-24T11:56:48;19.00;93.20
2389;DHT22;1205;47.984;7.668;2023-05-24T11:59:15;18.90;93.20
2389;DHT22;1205;47.984;7.668;2023-05-24T12:01:42;18.80;93.50
2389;DHT22;1205;47.984;7.668;2023-05-24T12:04:08;18.80;93.30
2389;DHT22;1205;47.984;7.668;2023-05-24T12:06:42;19.00;93.80
2389;DHT22;1205;47.984;7.668;2023-05-24T12:09:11;18.90;93.60
2389;DHT22;1205;47.984;7.668;2023-05-24T12:11:42;19.10;93.70
2389;DHT22;1205;47.984;7.668;2023-05-24T12:14:22;19.30;94.50
2389;DHT22;1205;47.984;7.668;2023-05-24T12:16:48;19.40;93.30
2389;DHT22;1205;47.984;7.668;2023-05-24T12:19:18;19.50;93.30
2389;DHT22;1205;47.984;7.668;2023-05-24T12:21:43;19.50;92.70
2389;DHT22;1205;47.984;7.668;2023-05-24T12:24:11;19.90;93.90
2389;DHT22;1205;47.984;7.668;2023-05-24T12:26:41;19.80;91.90
2389;DHT22;1205;47.984;7.668;2023-05-24T12:29:08;19.90;92.10
2389;DHT22;1205;47.984;7.668;2023-05-24T12:31:34;20.10;93.20
2389;DHT22;1205;47.984;7.668;2023-05-24T12:34:00;20.20;91.80
2389;DHT22;1205;47.984;7.668;2023-05-24T12:36:29;20.40;91.80
2389;DHT22;1205;47.984;7.668;2023-05-24T12:38:58;20.20;91.50
2389;DHT22;1205;47.984;7.668;2023-05-24T12:41:23;20.00;91.40
2389;DHT22;1205;47.984;7.668;2023-05-24T12:43:51;19.70;91.50
2389;DHT22;1205;47.984;7.668;2023-05-24T12:46:17;19.70;91.80
2389;DHT22;1205;47.984;7.668;2023-05-24T12:48:43;19.60;91.10
2389;DHT22;1205;47.984;7.668;2023-05-24T12:51:08;19.70;91.20
2389;DHT22;1205;47.984;7.668;2023-05-24T12:53:35;19.80;91.30
2389;DHT22;1205;47.984;7.668;2023-05-24T12:56:01;19.80;91.40
2389;DHT22;1205;47.984;7.668;2023-05-24T12:58:26;19.90;91.00
2389;DHT22;1205;47.984;7.668;2023-05-24T13:00:52;20.10;91.40
2389;DHT22;1205;47.984;7.668;2023-05-24T13:03:18;20.20;91.70
2389;DHT22;1205;47.984;7.668;2023-05-24T13:05:44;20.30;91.70
2389;DHT22;1205;47.984;7.668;2023-05-24T13:08:10;20.30;91.50
2389;DHT22;1205;47.984;7.668;2023-05-24T13:10:36;19.90;91.10
2389;DHT22;1205;47.984;7.668;2023-05-24T13:13:01;19.70;91.20
2389;DHT22;1205;47.984;7.668;2023-05-24T13:15:27;19.60;91.60
2389;DHT22;1205;47.984;7.668;2023-05-24T13:17:53;19.60;91.80
2389;DHT22;1205;47.984;7.668;2023-05-24T13:20:19;19.40;91.90
2389;DHT22;1205;47.984;7.668;2023-05-24T13:22:49;19.40;91.60
2389;DHT22;1205;47.984;7.668;2023-05-24T13:25:15;19.60;92.30
2389;DHT22;1205;47.984;7.668;2023-05-24T13:27:40;19.70;92.10
2389;DHT22;1205;47.984;7.668;2023-05-24T13:30:07;19.80;92.10
2389;DHT22;1205;47.984;7.668;2023-05-24T13:32:32;19.80;91.80
2389;DHT22;1205;47.984;7.668;2023-05-24T13:34:58;19.50;92.20
2389;DHT22;1205;47.984;7.668;2023-05-24T13:37:24;19.60;91.90
2389;DHT22;1205;47.984;7.668;2023-05-24T13:39:50;19.60;91.50
2389;DHT22;1205;47.984;7.668;2023-05-24T13:42:15;19.40;91.70
2389;DHT22;1205;47.984;7.668;2023-05-24T13:44:41;19.30;92.10
2389;DHT22;1205;47.984;7.668;2023-05-24T13:47:07;19.10;92.50
2389;DHT22;1205;47.984;7.668;2023-05-24T13:49:33;19.20;92.70
2389;DHT22;1205;47.984;7.668;2023-05-24T13:51:58;19.20;92.40
2389;DHT22;1205;47.984;7.668;2023-05-24T13:54:24;19.30;92.20
2389;DHT22;1205;47.984;7.668;2023-05-24T13:56:50;19.30;92.50
2389;DHT22;1205;47.984;7.668;2023-05-24T13:59:16;19.60;92.60
2389;DHT22;1205;47.984;7.668;2023-05-24T14:01:42;19.60;91.90
2389;DHT22;1205;47.984;7.668;2023-05-24T14:04:09;19.90;91.80
2389;DHT22;1205;47.984;7.668;2023-05-24T14:06:34;19.80;91.90
2389;DHT22;1205;47.984;7.668;2023-05-24T14:09:04;19.70;91.80
2389;DHT22;1205;47.984;7.668;2023-05-24T14:11:31;19.60;91.70
2389;DHT22;1205;47.984;7.668;2023-05-24T14:13:58;19.60;91.60
2389;DHT22;1205;47.984;7.668;2023-05-24T14:16:24;19.40;91.40
2389;DHT22;1205;47.984;7.668;2023-05-24T14:18:50;19.40;91.90
2389;DHT22;1205;47.984;7.668;2023-05-24T14:21:18;19.40;91.80
2389;DHT22;1205;47.984;7.668;2023-05-24T14:23:46;19.40;91.20
2389;DHT22;1205;47.984;7.668;2023-05-24T14:26:11;19.40;91.00
2389;DHT22;1205;47.984;7.668;2023-05-24T14:28:37;19.60;91.20
2389;DHT22;1205;47.984;7.668;2023-05-24T14:31:02;19.40;91.10
2389;DHT22;1205;47.984;7.668;2023-05-24T14:33:28;19.50;91.30
2389;DHT22;1205;47.984;7.668;2023-05-24T14:35:53;19.60;91.20
2389;DHT22;1205;47.984;7.668;2023-05-24T14:38:19;19.60;90.70
2389;DHT22;1205;47.984;7.668;2023-05-24T14:40:45;19.60;90.30
2389;DHT22;1205;47.984;7.668;2023-05-24T14:43:13;19.80;90.00
2389;DHT22;1205;47.984;7.668;2023-05-24T14:45:39;19.50;89.60
2389;DHT22;1205;47.984;7.668;2023-05-24T14:48:09;19.50;89.40
2389;DHT22;1205;47.984;7.668;2023-05-24T14:50:38;19.50;88.80
2389;DHT22;1205;47.984;7.668;2023-05-24T14:53:03;19.40;87.60
2389;DHT22;1205;47.984;7.668;2023-05-24T14:55:39;19.40;86.20
2389;DHT22;1205;47.984;7.668;2023-05-24T14:58:06;19.20;87.70
2389;DHT22;1205;47.984;7.668;2023-05-24T15:00:36;19.20;86.60
2389;DHT22;1205;47.984;7.668;2023-05-24T15:03:03;19.20;86.80
2389;DHT22;1205;47.984;7.668;2023-05-24T15:05:30;19.20;84.40
2389;DHT22;1205;47.984;7.668;2023-05-24T15:07:55;19.20;85.50
2389;DHT22;1205;47.984;7.668;2023-05-24T15:10:21;19.20;85.10
2389;DHT22;1205;47.984;7.668;2023-05-24T15:12:47;19.30;85.60
2389;DHT22;1205;47.984;7.668;2023-05-24T15:15:13;19.20;84.40
2389;DHT22;1205;47.984;7.668;2023-05-24T15:17:38;19.30;86.00
2389;DHT22;1205;47.984;7.668;2023-05-24T15:20:04;19.40;85.90
2389;DHT22;1205;47.984;7.668;2023-05-24T15:22:30;19.50;85.40
2389;DHT22;1205;47.984;7.668;2023-05-24T15:24:57;19.40;84.90
2389;DHT22;1205;47.984;7.668;2023-05-24T15:27:23;19.40;85.50
2389;DHT22;1205;47.984;7.668;2023-05-24T15:29:49;19.40;83.30
2389;DHT22;1205;47.984;7.668;2023-05-24T15:32:18;19.40;82.70
2389;DHT22;1205;47.984;7.668;2023-05-24T15:34:43;19.50;83.00
2389;DHT22;1205;47.984;7.668;2023-05-24T15:37:09;19.40;81.70
2389;DHT22;1205;47.984;7.668;2023-05-24T15:39:34;19.40;82.90
2389;DHT22;1205;47.984;7.668;2023-05-24T15:42:01;19.40;82.60
2389;DHT22;1205;47.984;7.668;2023-05-24T15:44:26;19.50;82.50
2389;DHT22;1205;47.984;7.668;2023-05-24T15:46:52;19.50;83.00
2389;DHT22;1205;47.984;7.668;2023-05-24T15:49:18;19.40;81.60
2389;DHT22;1205;47.984;7.668;2023-05-24T15:51:44;19.40;81.50
2389;DHT22;1205;47.984;7.668;2023-05-24T15:54:09;19.30;80.10
2389;DHT22;1205;47.984;7.668;2023-05-24T15:56:35;19.40;80.70
2389;DHT22;1205;47.984;7.668;2023-05-24T15:59:00;19.40;81.50
2389;DHT22;1205;47.984;7.668;2023-05-24T16:01:26;19.40;80.70
2389;DHT22;1205;47.984;7.668;2023-05-24T16:03:52;19.30;80.80
2389;DHT22;1205;47.984;7.668;2023-05-24T16:06:17;19.40;80.90
2389;DHT22;1205;47.984;7.668;2023-05-24T16:08:43;19.50;80.70
2389;DHT22;1205;47.984;7.668;2023-05-24T16:11:08;19.50;80.50
2389;DHT22;1205;47.984;7.668;2023-05-24T16:13:34;19.40;80.10
2389;DHT22;1205;47.984;7.668;2023-05-24T16:16:00;19.40;80.30
2389;DHT22;1205;47.984;7.668;2023-05-24T16:18:26;19.40;80.10
2389;DHT22;1205;47.984;7.668;2023-05-24T16:20:55;19.40;80.70
2389;DHT22;1205;47.984;7.668;2023-05-24T16:23:22;19.40;80.70